Time;durP1;ratioP1;P1;durP2;ratioP2;P2;SDS_P1;SDS_P2;PMS_P1;PMS_P2;Temp;Humidity;BMP_temperature;BMP_pressure;BME280_temperature;BME280_humidity;BME280_pressure;Samples;Min_cycle;Max_cycle;Signal;HPM_P1;HPM_P2
2021/11/12 00:02:44;;;;;;;21.60;10.88;;;;;;;2.50;76.13;100450.75;4918030;29;20051;-61
2021/11/12 00:13:20;;;;;;;32.95;13.90;;;;;;;2.35;76.88;100446.72;4917845;29;20139;-61
2021/11/12 00:15:52;;;;;;;27.88;13.73;;;;;;;2.22;76.40;100442.78;4917553;29;20075;-61
2021/11/12 00:18:23;;;;;;;36.00;16.52;;;;;;;2.26;76.90;100443.75;4917449;29;20104;-61
2021/11/12 00:20:54;;;;;;;30.67;15.02;;;;;;;2.32;77.07;100439.00;4917470;29;20075;-61
2021/11/12 00:23:29;;;;;;;36.35;16.48;;;;;;;2.37;77.40;100438.44;4917455;29;20052;-62
2021/11/12 00:26:02;;;;;;;32.25;15.73;;;;;;;2.42;77.45;100436.97;4917427;29;20067;-62
2021/11/12 00:28:36;;;;;;;30.75;15.65;;;;;;;2.43;77.15;100433.63;4917630;29;20139;-61
2021/11/12 00:31:15;;;;;;;35.83;17.20;;;;;;;2.35;76.49;100427.41;4917592;29;20087;-61
2021/11/12 00:34:04;;;;;;;31.83;16.00;;;;;;;2.42;77.06;100431.94;4917370;29;20127;-61
2021/11/12 00:37:01;;;;;;;29.50;15.55;;;;;;;2.64;77.03;100429.50;4915392;29;20040;-61
2021/11/12 00:39:39;;;;;;;29.80;15.55;;;;;;;2.68;76.73;100431.41;4915583;29;20425;-61
2021/11/12 00:42:15;;;;;;;32.78;14.52;;;;;;;2.75;77.17;100434.16;4915373;29;20048;-61
2021/11/12 00:44:50;;;;;;;28.08;14.55;;;;;;;2.79;76.43;100429.31;4915620;29;20050;-62
2021/11/12 00:47:24;;;;;;;29.67;14.63;;;;;;;2.81;76.64;100426.88;4915194;29;20052;-61
2021/11/12 00:50:20;;;;;;;29.58;14.95;;;;;;;2.79;76.34;100426.78;4918357;29;20047;-61
2021/11/12 00:55:39;;;;;;;30.95;14.32;;;;;;;2.56;75.82;100425.84;4884832;29;20487;-61
2021/11/12 00:58:10;;;;;;;31.92;14.30;;;;;;;2.46;76.19;100428.75;4933829;29;20134;-61
2021/11/12 01:00:40;;;;;;;32.58;14.80;;;;;;;2.46;75.87;100417.81;4939836;29;20051;-61
2021/11/12 01:03:13;;;;;;;28.95;15.02;;;;;;;2.39;76.91;100424.25;4940140;29;20047;-61
2021/11/12 01:05:43;;;;;;;30.75;15.32;;;;;;;2.42;76.91;100416.81;4939764;29;20056;-61
2021/11/12 01:08:16;;;;;;;29.23;15.05;;;;;;;2.41;76.22;100410.03;4939739;29;20047;-62
2021/11/12 01:10:50;;;;;;;31.52;15.98;;;;;;;2.39;76.56;100406.59;4939597;29;20143;-61
2021/11/12 01:13:24;;;;;;;34.55;16.40;;;;;;;2.38;76.47;100409.91;4939954;29;20074;-62
2021/11/12 01:15:57;;;;;;;32.65;15.20;;;;;;;2.41;76.36;100412.56;4939900;29;20051;-62
2021/11/12 01:18:29;;;;;;;31.52;15.07;;;;;;;2.36;76.95;100406.47;4939612;29;20516;-62
2021/11/12 01:21:02;;;;;;;31.92;15.15;;;;;;;2.39;77.37;100406.59;4939785;29;20048;-61
2021/11/12 01:23:34;;;;;;;33.63;14.60;;;;;;;2.31;77.09;100390.28;4939458;29;20062;-61
2021/11/12 01:26:09;;;;;;;31.20;15.23;;;;;;;2.48;77.28;100404.47;4939414;29;20047;-62
2021/11/12 01:28:42;;;;;;;30.65;14.35;;;;;;;2.43;77.41;100398.38;4939402;29;20079;-61
2021/11/12 01:31:12;;;;;;;26.85;15.02;;;;;;;2.42;76.60;100389.13;4939528;29;20083;-61
2021/11/12 01:33:45;;;;;;;29.48;15.38;;;;;;;2.58;76.62;100391.47;4939574;29;20072;-62
2021/11/12 01:36:28;;;;;;;33.92;14.50;;;;;;;2.68;76.65;100391.06;4939267;29;20382;-62
2021/11/12 01:39:06;;;;;;;26.50;14.18;;;;;;;2.68;76.20;100391.06;4939247;29;20076;-62
2021/11/12 01:41:45;;;;;;;30.65;15.10;;;;;;;2.75;75.88;100386.28;4939150;29;20044;-61
2021/11/12 01:44:27;;;;;;;29.30;13.38;;;;;;;2.80;76.96;100384.81;4939140;29;20056;-61
2021/11/12 01:47:13;;;;;;;34.97;15.05;;;;;;;2.80;76.33;100388.19;4939071;29;20081;-62
2021/11/12 01:49:46;;;;;;;31.48;14.65;;;;;;;2.78;75.74;100386.41;4939303;29;20059;-61
2021/11/12 01:52:22;;;;;;;29.73;14.93;;;;;;;2.81;75.95;100376.47;4938873;29;20127;-62
2021/11/12 01:55:02;;;;;;;30.80;14.20;;;;;;;2.82;76.05;100383.22;4940613;29;20085;-62
2021/11/12 01:57:54;;;;;;;26.90;14.18;;;;;;;2.83;76.41;100384.94;4957980;29;20047;-62
2021/11/12 02:00:26;;;;;;;24.60;13.50;;;;;;;2.81;76.22;100378.97;4957519;28;20142;-62
2021/11/12 02:02:59;;;;;;;27.02;13.05;;;;;;;2.70;75.20;100379.41;4957906;29;20078;-62
2021/11/12 02:05:31;;;;;;;25.52;12.38;;;;;;;2.55;75.81;100378.75;4957922;29;20047;-62
2021/11/12 02:08:03;;;;;;;24.83;12.63;;;;;;;2.48;75.36;100373.38;4957855;29;20523;-62
2021/11/12 02:10:33;;;;;;;26.00;12.15;;;;;;;2.38;75.99;100369.59;4958281;29;20489;-62
2021/11/12 02:13:11;;;;;;;27.70;12.35;;;;;;;2.30;75.69;100376.00;4957971;29;20043;-62
2021/11/12 02:15:42;;;;;;;22.70;11.18;;;;;;;2.23;76.39;100370.63;4957670;29;20098;-62
2021/11/12 02:18:15;;;;;;;21.83;11.18;;;;;;;2.17;75.79;100373.72;4957947;29;20062;-62
2021/11/12 02:20:57;;;;;;;26.33;11.55;;;;;;;2.10;76.28;100371.75;4957880;29;20051;-62
2021/11/12 02:23:33;;;;;;;22.08;10.43;;;;;;;2.09;76.45;100367.50;4958048;29;20421;-61
2021/11/12 02:26:03;;;;;;;21.05;11.13;;;;;;;2.12;76.50;100372.66;4957489;29;20058;-61
2021/11/12 02:28:39;;;;;;;19.67;9.75;;;;;;;2.02;76.11;100373.91;4957675;29;20379;-62
2021/11/12 02:31:11;;;;;;;20.63;10.02;;;;;;;1.93;76.92;100375.16;4957309;29;20050;-62
2021/11/12 02:33:44;;;;;;;21.60;9.20;;;;;;;1.96;76.68;100367.75;4957629;29;20157;-61
2021/11/12 02:36:19;;;;;;;19.05;8.82;;;;;;;1.98;77.11;100374.59;4957347;29;20074;-61
2021/11/12 02:38:55;;;;;;;21.60;9.00;;;;;;;2.15;76.58;100365.25;4957287;29;20133;-61
2021/11/12 02:41:28;;;;;;;24.08;9.48;;;;;;;2.28;76.55;100364.97;4957512;29;20055;-61
2021/11/12 02:44:02;;;;;;;23.70;10.13;;;;;;;2.45;76.99;100370.72;4957100;29;20129;-62
2021/11/12 02:46:35;;;;;;;21.30;9.68;;;;;;;2.50;76.69;100375.16;4957115;29;20138;-62
2021/11/12 02:49:08;;;;;;;20.80;10.32;;;;;;;2.45;75.73;100366.56;4957037;29;20054;-63
2021/11/12 02:51:43;;;;;;;25.30;10.57;;;;;;;2.43;76.00;100362.25;4957185;29;20039;-63
2021/11/12 02:54:15;;;;;;;21.70;10.05;;;;;;;2.41;75.30;100359.69;4956903;29;20110;-62
2021/11/12 02:56:50;;;;;;;26.00;11.48;;;;;;;2.37;76.17;100362.00;4956072;29;20142;-61
2021/11/12 02:59:22;;;;;;;19.20;9.18;;;;;;;2.36;75.35;100361.13;4956863;29;20055;-62
2021/11/12 03:01:53;;;;;;;20.67;9.63;;;;;;;2.41;76.24;100361.31;4957169;29;20481;-62
2021/11/12 03:04:22;;;;;;;19.33;9.05;;;;;;;2.27;75.74;100354.84;4956990;29;20497;-62
2021/11/12 03:06:57;;;;;;;21.02;9.13;;;;;;;2.13;75.32;100356.78;4956676;29;20130;-62
2021/11/12 03:09:33;;;;;;;22.10;10.65;;;;;;;2.07;75.77;100355.63;4956710;29;20130;-62
2021/11/12 03:12:07;;;;;;;21.83;9.40;;;;;;;2.15;75.82;100352.66;4956001;28;20116;-62
2021/11/12 03:14:39;;;;;;;21.48;9.15;;;;;;;2.20;76.14;100352.88;4956516;29;20051;-62
2021/11/12 03:17:11;;;;;;;19.08;9.23;;;;;;;1.94;75.71;100355.09;4956516;29;20102;-61
2021/11/12 03:19:44;;;;;;;18.20;8.75;;;;;;;1.88;75.54;100353.97;4956544;29;20130;-61
2021/11/12 03:22:22;;;;;;;17.98;8.00;;;;;;;1.81;76.47;100354.50;4956425;29;20051;-61
2021/11/12 03:24:57;;;;;;;21.85;9.70;;;;;;;1.79;76.57;100349.41;4956638;29;20450;-62
2021/11/12 03:27:34;;;;;;;22.92;9.65;;;;;;;1.76;76.69;100363.47;4956351;29;20047;-62
2021/11/12 04:00:12;;;;;;;22.98;10.18;;;;;;;2.04;76.08;100352.19;4955858;29;20047;-62
2021/11/12 05:51:22;;;;;;;27.88;12.57;;;;;;;1.90;76.77;100372.50;4958135;29;20070;-62
2021/11/12 05:56:43;;;;;;;25.00;11.80;;;;;;;1.85;76.78;100379.84;4957282;29;20067;-62
2021/11/12 05:59:13;;;;;;;20.15;10.15;;;;;;;1.88;76.66;100384.16;4957972;29;20052;-62
2021/11/12 06:01:44;;;;;;;22.90;9.75;;;;;;;2.05;77.47;100383.25;4957974;29;20047;-61
2021/11/12 06:04:19;;;;;;;19.80;9.85;;;;;;;2.17;77.24;100383.81;4957883;29;20134;-61
2021/11/12 06:06:52;;;;;;;27.15;10.93;;;;;;;2.31;76.71;100380.22;4958168;29;20112;-62
2021/11/12 06:09:24;;;;;;;22.55;10.27;;;;;;;2.31;76.24;100377.69;4957704;29;20047;-62
2021/11/12 06:11:54;;;;;;;22.05;10.40;;;;;;;2.32;76.53;100383.59;4957707;29;20049;-61
2021/11/12 06:14:27;;;;;;;22.20;11.10;;;;;;;2.45;76.50;100386.72;4957627;29;20047;-61
2021/11/12 06:16:59;;;;;;;23.38;11.15;;;;;;;2.60;77.17;100392.41;4957625;29;20062;-62
2021/11/12 06:19:33;;;;;;;22.77;9.90;;;;;;;2.77;77.69;100389.72;4957943;29;20481;-62
2021/11/12 06:22:06;;;;;;;21.15;9.77;;;;;;;2.84;76.67;100391.69;4957525;29;20047;-62
2021/11/12 06:24:35;;;;;;;21.63;10.90;;;;;;;2.85;77.21;100383.34;4957811;29;20048;-62
2021/11/12 06:27:08;;;;;;;22.05;10.88;;;;;;;2.96;77.67;100394.72;4957438;29;20042;-62
2021/11/12 06:29:42;;;;;;;22.40;11.38;;;;;;;2.98;77.76;100385.53;4957392;29;20466;-62
2021/11/12 06:32:16;;;;;;;21.95;10.10;;;;;;;3.10;77.14;100396.13;4957336;29;20066;-61
2021/11/12 06:34:51;;;;;;;23.50;10.82;;;;;;;3.21;76.89;100390.75;4957317;29;20132;-62
2021/11/12 06:37:21;;;;;;;19.48;10.65;;;;;;;3.21;77.49;100395.78;4957241;29;20079;-62
2021/11/12 06:39:53;;;;;;;23.33;10.57;;;;;;;3.29;77.10;100393.53;4957524;29;20122;-62
2021/11/12 06:42:28;;;;;;;27.13;11.90;;;;;;;3.38;77.15;100389.72;4957069;29;20552;-62
2021/11/12 06:50:26;;;;;;;21.50;9.60;;;;;;;3.50;77.13;100404.50;4956887;29;20055;-62
2021/11/12 06:52:59;;;;;;;22.08;9.90;;;;;;;3.57;77.48;100401.41;4956914;29;20489;-61
2021/11/12 06:55:28;;;;;;;21.77;9.27;;;;;;;3.65;76.89;100400.00;4956591;29;20055;-62
2021/11/12 06:58:04;;;;;;;23.33;10.02;;;;;;;3.58;77.11;100395.53;4955910;29;20051;-61
2021/11/12 07:00:34;;;;;;;24.60;9.00;;;;;;;3.60;77.32;100400.66;4956844;29;20129;-61
2021/11/12 07:03:07;;;;;;;19.48;9.18;;;;;;;3.52;76.83;100396.97;4956848;29;20126;-61
2021/11/12 07:05:38;;;;;;;18.45;8.77;;;;;;;3.55;77.17;100402.97;4956633;29;20065;-62
2021/11/12 07:08:07;;;;;;;18.25;8.52;;;;;;;3.54;76.80;100396.22;4955794;29;20058;-61
2021/11/12 07:10:38;;;;;;;20.13;10.00;;;;;;;3.58;77.24;100403.09;4956625;29;20043;-61
2021/11/12 07:13:11;;;;;;;22.67;9.98;;;;;;;3.60;77.09;100411.59;4956520;29;20054;-62
2021/11/12 07:15:40;;;;;;;19.83;9.52;;;;;;;3.47;77.66;100409.41;4956622;29;20055;-62
2021/11/12 07:18:10;;;;;;;20.67;9.27;;;;;;;3.47;77.36;100404.38;4956435;29;20130;-62
2021/11/12 07:20:40;;;;;;;19.00;9.48;;;;;;;3.49;77.46;100407.81;4956731;29;20544;-62
2021/11/12 07:23:13;;;;;;;23.33;10.23;;;;;;;3.56;76.99;100412.28;4956665;29;20580;-61
2021/11/12 07:25:43;;;;;;;25.15;10.73;;;;;;;3.53;77.31;100409.63;4956388;29;20062;-62
2021/11/12 07:28:13;;;;;;;22.95;10.60;;;;;;;3.58;77.74;100410.69;4956634;29;20047;-61
2021/11/12 07:30:42;;;;;;;;;;;;;;;3.51;77.95;100406.19;4956625;29;20143;-62
2021/11/12 07:33:15;;;;;;;;;;;;;;;3.57;78.07;100401.41;4956638;29;19930;-62
2021/11/12 07:35:49;;;;;;;21.67;10.48;;;;;;;3.50;77.92;100409.53;4956193;29;20003;-62
2021/11/12 07:38:23;;;;;;;22.48;10.20;;;;;;;3.25;77.92;100384.13;4956148;29;20074;-62
2021/11/12 07:41:16;;;;;;;23.20;10.57;;;;;;;3.50;78.07;100401.97;4956051;29;20047;-62
2021/11/12 07:46:37;;;;;;;19.52;9.48;;;;;;;3.89;77.77;100407.66;4955910;29;20061;-61
2021/11/12 07:49:13;;;;;;;24.50;9.93;;;;;;;3.96;78.35;100402.88;4955864;29;20047;-61
2021/11/12 07:51:43;;;;;;;26.45;10.35;;;;;;;4.06;77.73;100399.91;4955824;29;20058;-61
2021/11/12 07:54:13;;;;;;;22.08;10.15;;;;;;;4.12;78.18;100404.31;4956006;29;20055;-61
2021/11/12 07:56:43;;;;;;;23.33;10.63;;;;;;;4.14;77.70;100394.25;4955218;28;20102;-61
2021/11/12 07:59:12;;;;;;;19.92;10.27;;;;;;;4.19;78.15;100396.16;4955756;29;20138;-61
2021/11/12 08:01:42;;;;;;;23.73;10.82;;;;;;;4.29;77.68;100397.34;4955661;29;20059;-61
2021/11/12 08:04:12;;;;;;;19.48;9.93;;;;;;;4.46;78.11;100396.28;4955933;29;20508;-61
2021/11/12 08:06:41;;;;;;;;;;;;;;;4.59;78.21;100378.19;4956325;29;20043;-62
2021/11/12 08:09:14;;;;;;;21.70;9.53;;;;;;;4.68;77.94;100383.53;4955644;29;20296;-61
2021/11/12 08:11:47;;;;;;;19.35;8.85;;;;;;;4.78;77.94;100380.53;4955440;29;20058;-61
2021/11/12 08:14:23;;;;;;;20.05;9.68;;;;;;;4.87;78.24;100390.94;4955394;29;20082;-61
2021/11/12 08:19:38;;;;;;;56.33;29.98;;;;;;;4.96;77.80;100391.25;4955321;29;20051;-61
2021/11/12 08:22:10;;;;;;;40.28;15.85;;;;;;;4.91;78.05;100387.72;4955327;29;20102;-61
2021/11/12 08:24:53;;;;;;;18.02;9.38;;;;;;;4.98;78.65;100387.13;4955676;29;20067;-61
2021/11/12 08:30:30;;;;;;;20.58;10.10;;;;;;;5.15;78.40;100388.53;4951155;29;20389;-61
2021/11/12 08:33:12;;;;;;;19.75;9.35;;;;;;;5.34;78.29;100390.81;4955720;29;20398;-61
2021/11/12 08:36:28;;;;;;;26.05;10.43;;;;;;;5.23;78.42;100326.34;4955282;29;20054;-61
2021/11/12 08:39:07;;;;;;;15.40;6.73;;;;;;;5.77;77.93;100379.47;4955410;29;20150;-61
2021/11/12 08:41:46;;;;;;;18.13;8.77;;;;;;;5.80;77.78;100382.09;4938412;29;20158;-61
2021/11/12 08:44:21;;;;;;;16.77;9.67;;;;;;;5.84;77.63;100374.66;4955600;29;20126;-61
2021/11/12 08:46:56;;;;;;;18.77;9.00;;;;;;;5.96;77.28;100374.16;4955545;29;20277;-61
2021/11/12 08:49:33;;;;;;;19.20;9.27;;;;;;;6.00;77.16;100378.47;4955214;29;20082;-61
2021/11/12 08:52:05;;;;;;;17.08;9.15;;;;;;;6.09;76.92;100374.53;4955559;29;20142;-61
2021/11/12 08:54:40;;;;;;;22.00;10.23;;;;;;;6.10;77.06;100377.94;4955663;29;20406;-61
2021/11/12 08:57:16;;;;;;;20.65;9.93;;;;;;;6.13;76.80;100367.88;4955019;29;20122;-61
2021/11/12 08:59:52;;;;;;;17.80;8.82;;;;;;;6.23;77.20;100374.94;4955432;29;20047;-61
2021/11/12 09:02:27;;;;;;;19.90;9.68;;;;;;;6.27;76.77;100376.72;4955102;29;20043;-61
2021/11/12 09:04:57;;;;;;;19.58;9.52;;;;;;;6.42;76.81;100373.75;4955399;29;20047;-61
2021/11/12 09:07:31;;;;;;;20.42;10.10;;;;;;;6.60;77.01;100371.69;4955103;29;20051;-61
2021/11/12 09:10:05;;;;;;;17.35;9.15;;;;;;;6.69;76.11;100362.63;4956818;28;20154;-61
2021/11/12 09:12:36;;;;;;;20.40;9.93;;;;;;;6.81;76.50;100361.25;4958885;29;20540;-63
2021/11/12 09:15:13;;;;;;;19.17;9.73;;;;;;;6.83;75.93;100357.06;4958633;29;20094;-61
2021/11/12 09:17:46;;;;;;;16.70;8.70;;;;;;;6.82;75.08;100333.38;4958690;29;20055;-61
2021/11/12 09:20:25;;;;;;;15.50;8.57;;;;;;;7.03;75.65;100358.44;4958517;29;20085;-61
2021/11/12 09:22:55;;;;;;;17.75;9.10;;;;;;;7.07;75.40;100355.13;4958413;29;20074;-61
2021/11/12 09:25:26;;;;;;;20.50;9.00;;;;;;;7.22;75.56;100355.50;4958172;29;20449;-61
2021/11/12 09:27:57;;;;;;;17.63;9.45;;;;;;;7.37;75.71;100351.63;4957318;29;20051;-62
2021/11/12 09:30:35;;;;;;;17.08;8.75;;;;;;;7.70;74.20;100346.41;4958721;29;20057;-62
2021/11/12 09:33:08;;;;;;;18.23;8.43;;;;;;;7.97;74.73;100336.81;4958642;29;20449;-62
2021/11/12 09:35:39;;;;;;;17.13;8.48;;;;;;;8.13;73.71;100333.75;4958157;29;20047;-62
2021/11/12 09:38:08;;;;;;;15.77;8.52;;;;;;;7.60;73.22;100212.44;4958105;29;20501;-62
2021/11/12 09:40:41;;;;;;;21.15;9.32;;;;;;;8.47;73.40;100335.28;4958430;28;20070;-61
2021/11/12 09:43:15;;;;;;;17.40;8.45;;;;;;;8.63;72.42;100328.78;4957766;29;20047;-61
2021/11/12 09:45:44;;;;;;;16.13;9.25;;;;;;;8.67;72.28;100322.91;4958192;29;20043;-62
2021/11/12 09:48:14;;;;;;;20.20;9.35;;;;;;;8.69;71.49;100326.34;4958254;29;20556;-62
2021/11/12 09:50:43;;;;;;;17.38;8.50;;;;;;;8.83;71.53;100319.78;4958243;29;20130;-62
2021/11/12 09:53:13;;;;;;;16.38;9.18;;;;;;;9.03;71.41;100318.44;4957826;29;20089;-62
2021/11/12 09:55:43;;;;;;;15.95;8.80;;;;;;;9.31;70.95;100314.59;4957494;29;20059;-62
2021/11/12 09:58:16;;;;;;;15.68;8.30;;;;;;;9.54;70.25;100297.09;4958119;29;20043;-62
2021/11/12 10:00:46;;;;;;;14.13;7.30;;;;;;;9.81;70.35;100307.63;4957663;29;20039;-62
2021/11/12 10:03:17;;;;;;;16.27;8.43;;;;;;;9.87;68.97;100297.50;4957667;29;20094;-62
2021/11/12 10:05:48;;;;;;;17.92;9.18;;;;;;;9.72;68.98;100307.50;4957505;29;20050;-62
2021/11/12 10:08:23;;;;;;;16.25;8.57;;;;;;;9.68;68.72;100301.53;4957505;29;20047;-62
2021/11/12 10:10:55;;;;;;;17.70;9.00;;;;;;;9.90;68.26;100295.00;4957572;29;20134;-62
2021/11/12 10:13:30;;;;;;;17.42;9.43;;;;;;;9.91;68.41;100294.16;4957882;29;20401;-62
2021/11/12 10:18:59;;;;;;;15.80;8.90;;;;;;;10.52;66.92;100291.44;4957854;29;20043;-61
2021/11/12 10:21:29;;;;;;;16.40;8.48;;;;;;;10.83;66.46;100284.91;4957289;28;20172;-61
2021/11/12 10:24:01;;;;;;;;;;;;;;;10.74;65.74;100275.47;4957952;29;20445;-61
2021/11/12 10:26:34;;;;;;;17.83;8.02;;;;;;;10.90;64.78;100273.03;4957465;29;20357;-62
2021/11/12 10:29:08;;;;;;;18.70;9.52;;;;;;;11.07;64.57;100266.34;4957407;29;20047;-62
2021/11/12 10:31:42;;;;;;;18.25;9.30;;;;;;;11.11;64.02;100265.53;4957648;29;20055;-62
2021/11/12 10:34:18;;;;;;;20.20;10.43;;;;;;;10.90;63.86;100268.78;4957355;29;20074;-62
2021/11/12 10:37:02;;;;;;;20.08;10.40;;;;;;;10.86;63.80;100261.09;4957062;29;20082;-62
2021/11/12 10:39:43;;;;;;;18.88;9.57;;;;;;;10.64;63.68;100249.84;4957679;29;20405;-62
2021/11/12 10:42:16;;;;;;;22.75;11.05;;;;;;;10.32;63.90;100246.19;4957241;29;20098;-62
2021/11/12 10:44:52;;;;;;;18.48;9.98;;;;;;;10.27;64.20;100241.00;4957365;29;20489;-62
2021/11/12 10:47:22;;;;;;;21.40;11.27;;;;;;;10.24;64.37;100232.50;4957365;29;20548;-62
2021/11/12 10:49:53;;;;;;;21.65;10.20;;;;;;;10.50;64.04;100237.00;4956767;29;20043;-62
2021/11/12 10:52:25;;;;;;;20.15;10.35;;;;;;;10.76;63.63;100235.50;4956745;29;20053;-62
2021/11/12 10:54:57;;;;;;;20.75;10.70;;;;;;;10.84;63.11;100227.03;4956658;29;20051;-62
2021/11/12 10:57:33;;;;;;;20.10;10.85;;;;;;;11.12;62.42;100219.53;4956481;29;20051;-62
2021/11/12 11:00:25;;;;;;;22.42;12.07;;;;;;;11.44;62.18;100212.88;4956774;29;20501;-62
2021/11/12 11:02:57;;;;;;;17.75;10.02;;;;;;;11.34;61.83;100211.16;4952312;29;20043;-62
2021/11/12 11:05:31;;;;;;;20.33;10.45;;;;;;;11.45;62.30;100214.59;4956719;29;20130;-61
2021/11/12 11:08:07;;;;;;;20.85;10.88;;;;;;;11.31;61.53;100202.59;4957037;29;20117;-62
2021/11/12 11:10:39;;;;;;;17.42;10.05;;;;;;;11.35;61.90;100199.19;4956981;29;20066;-62
2021/11/12 11:13:14;;;;;;;20.23;10.45;;;;;;;11.50;61.74;100191.59;4956620;29;20102;-61
2021/11/12 11:15:50;;;;;;;21.77;10.85;;;;;;;11.75;61.73;100198.56;4956485;29;20134;-62
2021/11/12 11:18:26;;;;;;;20.48;10.65;;;;;;;11.81;61.27;100197.69;4956740;29;20066;-62
2021/11/12 11:24:07;;;;;;;20.17;10.18;;;;;;;12.32;60.85;100177.31;5170771;23;22997;-62
2021/11/12 11:26:45;;;;;;;20.90;10.13;;;;;;;12.50;60.96;100168.78;4843872;29;20488;-62
2021/11/12 11:29:16;;;;;;;20.70;10.07;;;;;;;12.55;60.37;100175.59;4843629;29;20042;-62
2021/11/12 11:31:49;;;;;;;20.13;11.38;;;;;;;12.43;60.09;100174.75;4843437;29;20492;-62
2021/11/12 11:34:19;;;;;;;18.65;10.43;;;;;;;12.21;59.79;100152.56;4843906;29;20074;-62
2021/11/12 11:36:51;;;;;;;20.42;10.45;;;;;;;12.07;60.10;100176.44;4843295;29;20087;-62
2021/11/12 11:39:20;;;;;;;20.48;11.10;;;;;;;12.08;60.45;100173.03;4843425;29;20042;-62
2021/11/12 11:41:50;;;;;;;22.67;11.00;;;;;;;12.14;60.39;100176.47;4843317;29;20060;-62
2021/11/12 11:44:21;;;;;;;21.20;10.13;;;;;;;12.21;60.49;100175.59;4843313;29;20151;-62
2021/11/12 11:46:54;;;;;;;22.65;10.93;;;;;;;12.12;60.32;100168.75;4843533;29;20046;-62
2021/11/12 11:49:26;;;;;;;20.67;10.35;;;;;;;11.85;60.13;100164.47;4843254;29;20058;-62
2021/11/12 11:51:58;;;;;;;23.88;11.30;;;;;;;11.68;60.30;100171.25;4843188;29;20133;-62
2021/11/12 11:54:28;;;;;;;23.75;10.95;;;;;;;11.84;60.59;100167.88;4843097;29;20508;-62
2021/11/12 11:57:00;;;;;;;19.80;11.27;;;;;;;11.98;60.43;100161.06;4843149;29;20096;-62
2021/11/12 11:59:34;;;;;;;20.20;10.82;;;;;;;11.99;60.09;100152.56;4843157;29;20060;-62
2021/11/12 12:02:07;;;;;;;20.33;9.90;;;;;;;12.12;59.50;100157.69;4843048;29;20050;-62
2021/11/12 12:04:42;;;;;;;20.08;10.25;;;;;;;12.26;59.31;100151.69;4843089;29;20046;-62
2021/11/12 12:07:30;;;;;;;20.95;10.77;;;;;;;12.45;59.04;100147.44;4842980;29;20137;-62
2021/11/12 12:10:04;;;;;;;19.70;10.80;;;;;;;12.43;59.39;100138.94;4842835;29;20042;-62
2021/11/12 12:12:45;;;;;;;21.10;10.93;;;;;;;12.45;59.84;100140.59;4843391;29;20167;-62
2021/11/12 12:15:46;;;;;;;20.40;11.32;;;;;;;12.48;59.51;100142.31;4842794;29;20061;-62
2021/11/12 12:18:24;;;;;;;21.60;11.18;;;;;;;12.29;59.31;100140.59;4842890;29;20050;-62
2021/11/12 12:21:36;;;;;;;16.77;9.48;;;;;;;12.31;59.31;100138.94;4842890;29;20081;-62
2021/11/12 12:32:53;;;;;;;16.48;8.50;;;;;;;12.29;59.32;100130.38;4842854;29;20415;-63
2021/11/12 13:22:43;;;;;;;19.93;10.43;;;;;;;11.73;61.33;100097.13;4807624;29;20055;-62
2021/11/12 13:25:26;;;;;;;20.25;10.02;;;;;;;11.81;60.80;100090.28;4841643;29;20058;-63
2021/11/12 13:28:14;;;;;;;18.65;10.23;;;;;;;11.44;61.13;100089.38;4845775;29;20069;-63
2021/11/12 13:30:47;;;;;;;15.50;8.43;;;;;;;11.47;61.30;100089.34;4845571;29;20056;-63
2021/11/12 13:33:35;;;;;;;23.60;11.60;;;;;;;11.43;61.27;100100.41;4845792;29;20088;-63
2021/11/12 13:36:19;;;;;;;23.23;11.52;;;;;;;11.19;62.63;100102.91;4845591;29;20057;-63
2021/11/12 13:38:53;;;;;;;21.05;11.32;;;;;;;11.04;63.66;100092.63;4845617;29;20500;-63
2021/11/12 13:41:26;;;;;;;23.08;12.70;;;;;;;10.93;64.08;100095.16;4845451;29;20046;-62
2021/11/12 13:44:06;;;;;;;22.30;10.77;;;;;;;11.00;63.21;100093.47;4845507;29;20050;-63
2021/11/12 13:46:47;;;;;;;20.73;10.63;;;;;;;11.04;63.06;100082.41;4845495;29;20137;-63
2021/11/12 13:49:29;;;;;;;20.30;10.85;;;;;;;10.88;63.63;100085.75;4845517;29;20046;-63
2021/11/12 13:52:06;;;;;;;18.40;10.50;;;;;;;10.64;64.32;100087.34;4845323;29;20085;-63
2021/11/12 13:54:41;;;;;;;22.73;11.90;;;;;;;10.54;65.00;100093.22;4844909;29;20054;-63
2021/11/12 13:57:15;;;;;;;24.13;12.63;;;;;;;10.40;65.08;100087.19;4844901;29;20042;-62
2021/11/12 13:59:53;;;;;;;24.17;12.18;;;;;;;10.09;65.09;100059.75;4845088;29;20137;-63
2021/11/12 14:02:25;;;;;;;21.23;12.02;;;;;;;10.10;66.16;100086.97;4844801;29;20115;-63
2021/11/12 14:05:10;;;;;;;24.30;12.68;;;;;;;10.04;66.15;100077.56;4845351;29;20057;-63
2021/11/12 14:07:43;;;;;;;26.05;13.07;;;;;;;10.00;66.56;100085.19;4845418;29;20130;-63
2021/11/12 14:10:20;;;;;;;21.33;11.60;;;;;;;9.93;66.38;100085.97;4845005;29;20110;-63
2021/11/12 14:12:54;;;;;;;22.65;11.23;;;;;;;9.89;67.39;100085.06;4845067;29;20129;-63
2021/11/12 14:15:27;;;;;;;22.45;11.35;;;;;;;9.84;67.06;100089.28;4844968;29;20118;-63
2021/11/12 14:18:16;;;;;;;20.70;10.70;;;;;;;9.79;67.34;100079.91;4844852;29;20098;-63
2021/11/12 14:21:09;;;;;;;24.50;12.23;;;;;;;9.62;67.73;100066.16;4844895;29;20058;-63
2021/11/12 14:23:56;;;;;;;23.58;11.07;;;;;;;9.62;67.96;100086.53;4845074;29;20106;-62
2021/11/12 14:26:34;;;;;;;21.35;10.15;;;;;;;9.63;67.76;100078.03;4844847;29;20137;-63
2021/11/12 14:35:25;;;;;;;18.55;9.55;;;;;;;9.51;68.48;100077.91;4844660;29;20065;-63
2021/11/12 14:38:10;;;;;;;20.05;10.25;;;;;;;9.49;68.41;100077.06;4844923;29;20114;-63
2021/11/12 14:41:04;;;;;;;19.95;9.93;;;;;;;9.40;68.02;100077.81;4844528;29;20106;-63
2021/11/12 14:46:27;;;;;;;19.02;9.95;;;;;;;9.10;68.97;100075.78;4841654;29;20136;-63
2021/11/12 14:49:16;;;;;;;19.38;10.05;;;;;;;9.02;68.95;100077.38;4844400;29;20133;-63
2021/11/12 14:51:59;;;;;;;19.60;9.55;;;;;;;8.96;69.77;100067.13;4844351;29;20050;-62
2021/11/12 14:54:35;;;;;;;19.27;10.63;;;;;;;8.81;69.89;100061.84;4844289;29;20500;-62
2021/11/12 14:57:13;;;;;;;18.48;9.65;;;;;;;8.82;69.80;100061.03;4844167;29;20404;-63
2021/11/12 14:59:44;;;;;;;21.23;9.80;;;;;;;8.69;69.83;100056.63;4844317;29;20057;-62
2021/11/12 15:02:17;;;;;;;16.88;9.27;;;;;;;8.57;69.43;100061.53;4857603;29;20077;-63
2021/11/12 15:04:50;;;;;;;19.20;9.90;;;;;;;8.41;70.67;100064.72;4857693;29;20140;-63
2021/11/12 15:07:27;;;;;;;19.80;10.15;;;;;;;8.32;70.64;100065.47;4843121;29;20079;-63
2021/11/12 15:10:00;;;;;;;19.20;11.05;;;;;;;8.27;71.77;100071.28;4843927;29;20061;-63
2021/11/12 15:12:32;;;;;;;22.45;11.82;;;;;;;8.20;70.69;100080.50;4844365;29;20046;-63
2021/11/12 15:15:01;;;;;;;22.15;10.73;;;;;;;8.09;70.85;100080.31;4843936;29;20073;-62
2021/11/12 15:17:32;;;;;;;21.38;9.20;;;;;;;8.01;71.31;100074.25;4844163;29;20468;-63
2021/11/12 15:20:02;;;;;;;27.17;13.60;;;;;;;7.94;71.33;100082.59;4844263;29;20077;-63
2021/11/12 15:22:46;;;;;;;31.27;15.88;;;;;;;7.87;72.04;100075.72;4843860;29;20050;-63
2021/11/12 15:25:20;;;;;;;27.90;15.10;;;;;;;7.94;71.97;100072.44;4842980;29;20069;-62
2021/11/12 15:27:57;;;;;;;34.05;17.23;;;;;;;7.88;71.47;100057.13;4843902;29;20061;-63
2021/11/12 15:30:29;;;;;;;29.02;15.48;;;;;;;7.81;71.98;100065.47;4843768;29;20056;-62
2021/11/12 15:33:03;;;;;;;23.42;13.35;;;;;;;7.74;72.11;100058.59;4843947;29;20400;-63
2021/11/12 15:35:35;;;;;;;28.15;13.88;;;;;;;7.62;71.68;100058.38;4843644;29;20114;-62
2021/11/12 15:38:14;;;;;;;24.75;12.80;;;;;;;7.61;72.42;100064.28;4843516;29;20050;-63
2021/11/12 15:40:46;;;;;;;21.48;10.82;;;;;;;7.63;71.73;100059.25;4843507;29;20053;-63
2021/11/12 15:43:23;;;;;;;25.38;11.52;;;;;;;7.41;71.45;100058.00;4843543;29;20049;-63
2021/11/12 15:46:06;;;;;;;23.15;11.35;;;;;;;7.37;71.78;100061.31;4843453;29;20054;-63
2021/11/12 15:48:42;;;;;;;26.45;12.75;;;;;;;7.33;71.85;100059.53;4842367;29;20527;-63
2021/11/12 15:51:26;;;;;;;23.08;12.48;;;;;;;7.30;71.83;100062.00;4843324;29;20089;-63
2021/11/12 15:54:12;;;;;;;29.55;15.32;;;;;;;7.28;71.86;100062.00;4843849;29;20452;-63